createdAt,value
2019-02-27T00:00:18.331Z,1028.09
2019-02-27T00:01:18.311Z,1028.13
2019-02-27T00:02:18.291Z,1028.11
2019-02-27T00:03:18.264Z,1028.09
2019-02-27T00:04:18.247Z,1028.1
2019-02-27T00:05:18.227Z,1028.11
2019-02-27T00:06:18.201Z,1028.16
2019-02-27T00:07:20.797Z,1028.1
2019-02-27T00:08:18.164Z,1028.08
2019-02-27T00:09:18.143Z,1028.08
2019-02-27T00:10:18.123Z,1028.03
2019-02-27T00:11:18.096Z,1028.03
2019-02-27T00:12:19.319Z,1028.04
2019-02-27T00:13:18.073Z,1028.05
2019-02-27T00:14:18.040Z,1028.04
2019-02-27T00:15:18.013Z,1027.97
2019-02-27T00:16:17.993Z,1028.02
2019-02-27T00:17:18.781Z,1027.99
2019-02-27T00:18:17.956Z,1027.97
2019-02-27T00:19:17.937Z,1027.96
2019-02-27T00:20:17.909Z,1027.95
2019-02-27T00:21:17.892Z,1027.96
2019-02-27T00:22:18.419Z,1027.95
2019-02-27T00:23:17.851Z,1027.98
2019-02-27T00:24:17.837Z,1027.97
2019-02-27T00:25:17.809Z,1027.96
2019-02-27T00:26:17.785Z,1027.96
2019-02-27T00:27:17.768Z,1027.93
2019-02-27T00:28:17.744Z,1027.93
2019-02-27T00:29:17.726Z,1027.89
2019-02-27T00:30:17.701Z,1027.89
2019-02-27T00:31:17.687Z,1027.86
2019-02-27T00:32:18.473Z,1027.84
2019-02-27T00:33:17.643Z,1027.87
2019-02-27T00:34:17.618Z,1027.9
2019-02-27T00:35:17.598Z,1027.86
2019-02-27T00:36:17.580Z,1027.84
2019-02-27T00:37:18.934Z,1027.81
2019-02-27T00:38:17.536Z,1027.82
2019-02-27T00:39:17.514Z,1027.83
2019-02-27T00:40:17.496Z,1027.83
2019-02-27T00:41:17.476Z,1027.83
2019-02-27T00:42:20.261Z,1027.82
2019-02-27T00:43:17.431Z,1027.8
2019-02-27T00:44:17.413Z,1027.78
2019-02-27T00:45:17.390Z,1027.82
2019-02-27T00:46:17.372Z,1027.82
2019-02-27T00:47:20.014Z,1027.8
2019-02-27T00:48:17.326Z,1027.79
2019-02-27T00:49:17.406Z,1027.81
2019-02-27T00:50:17.288Z,1027.84
2019-02-27T00:51:17.271Z,1027.79
2019-02-27T00:52:18.223Z,1027.8
2019-02-27T00:53:17.221Z,1027.77
2019-02-27T00:54:17.205Z,1027.76
2019-02-27T00:55:17.183Z,1027.73
2019-02-27T00:56:17.165Z,1027.73
2019-02-27T00:57:20.415Z,1027.68
2019-02-27T00:58:17.116Z,1027.7
2019-02-27T00:59:17.100Z,1027.67
2019-02-27T01:00:17.075Z,1027.63
2019-02-27T01:01:17.058Z,1027.69
2019-02-27T01:02:19.893Z,1027.67
2019-02-27T01:03:17.016Z,1027.67
2019-02-27T01:04:16.995Z,1027.69
2019-02-27T01:05:16.979Z,1027.66
2019-02-27T01:06:16.949Z,1027.65
2019-02-27T01:07:20.176Z,1027.64
2019-02-27T01:08:16.911Z,1027.66
2019-02-27T01:09:16.890Z,1027.64
2019-02-27T01:10:16.865Z,1027.64
2019-02-27T01:11:18.379Z,1027.61
2019-02-27T01:12:16.828Z,1027.65
2019-02-27T01:13:16.806Z,1027.64
2019-02-27T01:14:16.787Z,1027.61
2019-02-27T01:15:16.760Z,1027.63
2019-02-27T01:16:17.198Z,1027.59
2019-02-27T01:17:16.718Z,1027.62
2019-02-27T01:18:16.702Z,1027.61
2019-02-27T01:19:16.677Z,1027.57
2019-02-27T01:20:16.654Z,1027.55
2019-02-27T01:21:18.909Z,1027.58
2019-02-27T01:22:16.618Z,1027.52
2019-02-27T01:23:16.598Z,1027.52
2019-02-27T01:24:17.403Z,1027.49
2019-02-27T01:25:16.550Z,1027.47
2019-02-27T01:26:16.537Z,1027.5
2019-02-27T01:27:16.514Z,1027.46
2019-02-27T01:28:16.487Z,1027.47
2019-02-27T01:29:18.075Z,1027.45
2019-02-27T01:30:16.445Z,1027.48
2019-02-27T01:31:16.432Z,1027.44
2019-02-27T01:32:16.405Z,1027.47
2019-02-27T01:33:16.388Z,1027.44
2019-02-27T01:34:16.361Z,1027.39
2019-02-27T01:35:18.661Z,1027.42
2019-02-27T01:36:16.324Z,1027.43
2019-02-27T01:37:16.305Z,1027.45
2019-02-27T01:38:16.280Z,1027.38
2019-02-27T01:39:16.256Z,1027.4
2019-02-27T01:40:17.813Z,1027.38
2019-02-27T01:41:16.219Z,1027.38
2019-02-27T01:42:16.193Z,1027.38
2019-02-27T01:43:16.172Z,1027.36
2019-02-27T01:44:16.156Z,1027.32
2019-02-27T01:45:20.534Z,1027.35
2019-02-27T01:46:16.117Z,1027.29
2019-02-27T01:47:16.089Z,1027.28
2019-02-27T01:48:16.072Z,1027.32
2019-02-27T01:49:16.770Z,1027.22
2019-02-27T01:50:16.030Z,1027.28
2019-02-27T01:51:16.008Z,1027.23
2019-02-27T01:52:15.985Z,1027.25
2019-02-27T01:53:15.963Z,1027.23
2019-02-27T01:54:15.948Z,1027.25
2019-02-27T01:55:15.925Z,1027.24
2019-02-27T01:56:15.902Z,1027.26
2019-02-27T01:57:15.879Z,1027.24
2019-02-27T01:58:15.862Z,1027.24
2019-02-27T01:59:16.698Z,1027.23
2019-02-27T02:00:15.817Z,1027.25
2019-02-27T02:01:15.795Z,1027.2
2019-02-27T02:02:15.778Z,1027.19
2019-02-27T02:03:15.760Z,1027.18
2019-02-27T02:04:19.949Z,1027.19
2019-02-27T02:05:15.716Z,1027.23
2019-02-27T02:06:15.692Z,1027.19
2019-02-27T02:07:15.674Z,1027.19
2019-02-27T02:08:15.653Z,1027.19
2019-02-27T02:09:15.670Z,1027.2
2019-02-27T02:10:15.606Z,1027.21
2019-02-27T02:11:15.585Z,1027.19
2019-02-27T02:12:15.568Z,1027.16
2019-02-27T02:13:15.850Z,1027.22
2019-02-27T02:14:15.523Z,1027.12
2019-02-27T02:15:15.500Z,1027.07
2019-02-27T02:16:15.486Z,1027.07
2019-02-27T02:17:15.464Z,1027.03
2019-02-27T02:18:15.443Z,1027.01
2019-02-27T02:19:15.417Z,1026.98
2019-02-27T02:20:15.401Z,1026.94
2019-02-27T02:21:15.375Z,1026.93
2019-02-27T02:22:15.358Z,1026.9
2019-02-27T02:23:15.333Z,1026.87
2019-02-27T02:24:15.312Z,1026.87
2019-02-27T02:25:15.291Z,1026.85
2019-02-27T02:26:15.274Z,1026.82
2019-02-27T02:27:15.252Z,1026.78
2019-02-27T02:28:15.489Z,1026.75
2019-02-27T02:29:15.207Z,1026.73
2019-02-27T02:30:15.191Z,1026.71
2019-02-27T02:31:15.171Z,1026.74
2019-02-27T02:32:17.318Z,1026.71
2019-02-27T02:33:15.123Z,1026.67
2019-02-27T02:34:15.100Z,1026.63
2019-02-27T02:35:15.954Z,1026.61
2019-02-27T02:36:15.060Z,1026.62
2019-02-27T02:37:15.043Z,1026.62
2019-02-27T02:38:15.019Z,1026.61
2019-02-27T02:39:18.161Z,1026.57
2019-02-27T02:40:14.976Z,1026.58
2019-02-27T02:41:14.954Z,1026.59
2019-02-27T02:42:14.937Z,1026.57
2019-02-27T02:43:14.918Z,1026.56
2019-02-27T02:44:20.580Z,1026.55
2019-02-27T02:45:14.873Z,1026.51
2019-02-27T02:46:14.854Z,1026.51
2019-02-27T02:47:19.486Z,1026.47
2019-02-27T02:48:14.807Z,1026.46
2019-02-27T02:49:14.786Z,1026.45
2019-02-27T02:50:17.649Z,1026.44
2019-02-27T02:51:14.749Z,1026.46
2019-02-27T02:52:14.722Z,1026.45
2019-02-27T02:53:14.706Z,1026.4
2019-02-27T02:54:14.681Z,1026.42
2019-02-27T02:55:14.680Z,1026.41
2019-02-27T02:56:14.645Z,1026.37
2019-02-27T02:57:14.622Z,1026.4
2019-02-27T02:58:14.595Z,1026.41
2019-02-27T02:59:14.574Z,1026.4
2019-02-27T03:00:14.559Z,1026.38
2019-02-27T03:01:15.439Z,1026.36
2019-02-27T03:02:14.513Z,1026.38
2019-02-27T03:03:14.491Z,1026.32
2019-02-27T03:04:14.474Z,1026.33
2019-02-27T03:05:14.453Z,1026.32
2019-02-27T03:06:14.430Z,1026.29
2019-02-27T03:07:14.406Z,1026.25
2019-02-27T03:08:19.753Z,1026.24
2019-02-27T03:09:14.367Z,1026.22
2019-02-27T03:10:14.347Z,1026.21
2019-02-27T03:11:17.636Z,1026.19
2019-02-27T03:12:14.310Z,1026.16
2019-02-27T03:13:14.280Z,1026.19
2019-02-27T03:14:17.529Z,1026.17
2019-02-27T03:15:14.248Z,1026.15
2019-02-27T03:16:14.216Z,1026.11
2019-02-27T03:17:17.783Z,1026.14
2019-02-27T03:18:14.178Z,1026.11
2019-02-27T03:19:14.158Z,1026.11
2019-02-27T03:20:17.589Z,1026.11
2019-02-27T03:21:14.111Z,1026.07
2019-02-27T03:22:14.102Z,1026.01
2019-02-27T03:23:15.556Z,1026.06
2019-02-27T03:24:14.048Z,1026
2019-02-27T03:25:14.031Z,1026.03
2019-02-27T03:26:16.751Z,1025.99
2019-02-27T03:27:13.988Z,1026.03
2019-02-27T03:28:13.968Z,1026.03
2019-02-27T03:29:16.784Z,1026.03
2019-02-27T03:30:13.925Z,1026.02
2019-02-27T03:31:17.913Z,1026.04
2019-02-27T03:32:13.883Z,1025.99
2019-02-27T03:33:22.654Z,1025.97
2019-02-27T03:34:13.837Z,1025.93
2019-02-27T03:35:13.816Z,1025.96
2019-02-27T03:36:13.800Z,1025.99
2019-02-27T03:37:14.288Z,1026
2019-02-27T03:38:13.757Z,1025.98
2019-02-27T03:39:13.732Z,1026
2019-02-27T03:40:13.715Z,1025.95
2019-02-27T03:41:13.693Z,1025.96
2019-02-27T03:42:13.678Z,1025.99
2019-02-27T03:43:13.647Z,1025.94
2019-02-27T03:44:13.626Z,1026
2019-02-27T03:45:13.605Z,1025.98
2019-02-27T03:46:13.589Z,1026
2019-02-27T03:47:16.559Z,1026
2019-02-27T03:48:13.541Z,1025.95
2019-02-27T03:49:13.521Z,1025.96
2019-02-27T03:50:14.857Z,1025.95
2019-02-27T03:51:13.482Z,1025.96
2019-02-27T03:52:13.458Z,1025.96
2019-02-27T03:53:13.437Z,1025.95
2019-02-27T03:54:13.419Z,1025.9
2019-02-27T03:55:13.398Z,1025.91
2019-02-27T03:56:13.371Z,1025.91
2019-02-27T03:57:18.771Z,1025.91
2019-02-27T03:58:13.329Z,1025.92
2019-02-27T03:59:13.312Z,1025.92
2019-02-27T04:00:17.782Z,1025.88
2019-02-27T04:01:13.272Z,1025.9
2019-02-27T04:02:13.246Z,1025.9
2019-02-27T04:03:16.900Z,1025.89
2019-02-27T04:04:13.207Z,1025.95
2019-02-27T04:05:13.186Z,1025.91
2019-02-27T04:06:13.160Z,1025.9
2019-02-27T04:07:13.140Z,1025.87
2019-02-27T04:08:13.126Z,1025.92
2019-02-27T04:09:18.484Z,1025.87
2019-02-27T04:10:13.080Z,1025.87
2019-02-27T04:11:13.054Z,1025.85
2019-02-27T04:12:15.992Z,1025.88
2019-02-27T04:13:13.011Z,1025.87
2019-02-27T04:14:12.994Z,1025.85
2019-02-27T04:15:17.645Z,1025.82
2019-02-27T04:16:12.945Z,1025.81
2019-02-27T04:17:12.926Z,1025.79
2019-02-27T04:18:12.911Z,1025.82
2019-02-27T04:19:12.888Z,1025.85
2019-02-27T04:20:15.440Z,1025.83
2019-02-27T04:21:12.848Z,1025.81
2019-02-27T04:22:12.831Z,1025.82
2019-02-27T04:23:12.941Z,1025.81
2019-02-27T04:24:12.781Z,1025.86
2019-02-27T04:25:12.765Z,1025.86
2019-02-27T04:26:12.744Z,1025.82
2019-02-27T04:27:12.714Z,1025.83
2019-02-27T04:28:12.699Z,1025.84
2019-02-27T04:29:12.675Z,1025.8
2019-02-27T04:30:14.956Z,1025.82
2019-02-27T04:31:12.653Z,1025.8
2019-02-27T04:32:13.236Z,1025.77
2019-02-27T04:33:12.614Z,1025.74
2019-02-27T04:34:12.570Z,1025.73
2019-02-27T04:35:12.548Z,1025.77
2019-02-27T04:36:13.331Z,1025.74
2019-02-27T04:37:12.501Z,1025.78
2019-02-27T04:38:12.484Z,1025.75
2019-02-27T04:39:12.463Z,1025.75
2019-02-27T04:40:12.438Z,1025.76
2019-02-27T04:41:12.415Z,1025.74
2019-02-27T04:42:12.395Z,1025.73
2019-02-27T04:43:12.378Z,1025.78
2019-02-27T04:44:12.353Z,1025.74
2019-02-27T04:45:13.105Z,1025.74
2019-02-27T04:46:12.309Z,1025.77
2019-02-27T04:47:12.293Z,1025.76
2019-02-27T04:48:12.274Z,1025.73
2019-02-27T04:49:12.250Z,1025.73
2019-02-27T04:50:12.225Z,1025.75
2019-02-27T04:51:14.677Z,1025.76
2019-02-27T04:52:12.186Z,1025.76
2019-02-27T04:53:12.166Z,1025.74
2019-02-27T04:54:12.140Z,1025.73
2019-02-27T04:55:13.036Z,1025.79
2019-02-27T04:56:12.101Z,1025.78
2019-02-27T04:57:12.081Z,1025.77
2019-02-27T04:58:12.059Z,1025.75
2019-02-27T04:59:12.034Z,1025.72
2019-02-27T05:00:12.016Z,1025.72
2019-02-27T05:01:11.990Z,1025.7
2019-02-27T05:02:14.355Z,1025.69
2019-02-27T05:03:11.949Z,1025.66
2019-02-27T05:04:11.926Z,1025.64
2019-02-27T05:05:11.907Z,1025.65
2019-02-27T05:06:14.240Z,1025.6
2019-02-27T05:07:11.867Z,1025.64
2019-02-27T05:08:11.842Z,1025.66
2019-02-27T05:09:12.719Z,1025.62
2019-02-27T05:10:11.805Z,1025.62
2019-02-27T05:11:14.077Z,1025.63
2019-02-27T05:12:11.757Z,1025.62
2019-02-27T05:13:11.736Z,1025.65
2019-02-27T05:14:11.715Z,1025.61
2019-02-27T05:15:11.698Z,1025.59
2019-02-27T05:16:13.871Z,1025.58
2019-02-27T05:17:11.656Z,1025.55
2019-02-27T05:18:11.629Z,1025.57
2019-02-27T05:19:11.613Z,1025.53
2019-02-27T05:20:12.541Z,1025.53
2019-02-27T05:21:11.570Z,1025.55
2019-02-27T05:22:11.544Z,1025.53
2019-02-27T05:23:11.525Z,1025.55
2019-02-27T05:24:11.507Z,1025.51
2019-02-27T05:25:12.030Z,1025.53
2019-02-27T05:26:11.460Z,1025.51
2019-02-27T05:27:11.438Z,1025.52
2019-02-27T05:28:11.421Z,1025.52
2019-02-27T05:29:11.399Z,1025.54
2019-02-27T05:30:12.207Z,1025.52
2019-02-27T05:31:11.353Z,1025.53
2019-02-27T05:32:11.337Z,1025.51
2019-02-27T05:33:11.312Z,1025.51
2019-02-27T05:34:13.466Z,1025.52
2019-02-27T05:35:11.267Z,1025.49
2019-02-27T05:36:11.246Z,1025.47
2019-02-27T05:37:11.227Z,1025.47
2019-02-27T05:38:11.208Z,1025.46
2019-02-27T05:39:11.256Z,1025.45
2019-02-27T05:40:11.161Z,1025.45
2019-02-27T05:41:11.142Z,1025.49
2019-02-27T05:42:13.030Z,1025.47
2019-02-27T05:43:13.836Z,1025.48
2019-02-27T05:44:11.076Z,1025.46
2019-02-27T05:45:11.060Z,1025.45
2019-02-27T05:46:11.033Z,1025.43
2019-02-27T05:47:11.834Z,1025.42
2019-02-27T05:48:10.989Z,1025.39
2019-02-27T05:49:10.973Z,1025.42
2019-02-27T05:50:10.950Z,1025.45
2019-02-27T05:51:10.933Z,1025.41
2019-02-27T05:52:11.798Z,1025.41
2019-02-27T05:53:10.888Z,1025.43
2019-02-27T05:54:10.862Z,1025.49
2019-02-27T05:55:10.906Z,1025.45
2019-02-27T05:56:15.240Z,1025.48
2019-02-27T05:57:10.803Z,1025.45
2019-02-27T05:58:10.776Z,1025.46
2019-02-27T05:59:10.754Z,1025.44
2019-02-27T06:00:10.755Z,1025.44
2019-02-27T06:01:10.718Z,1025.43
2019-02-27T06:02:11.413Z,1025.47
2019-02-27T06:03:10.674Z,1025.48
2019-02-27T06:04:10.648Z,1025.49
2019-02-27T06:05:10.630Z,1025.47
2019-02-27T06:06:11.739Z,1025.46
2019-02-27T06:07:10.588Z,1025.47
2019-02-27T06:08:10.566Z,1025.52
2019-02-27T06:09:10.975Z,1025.45
2019-02-27T06:10:10.606Z,1025.45
2019-02-27T06:11:10.509Z,1025.48
2019-02-27T06:12:10.488Z,1025.44
2019-02-27T06:13:13.996Z,1025.42
2019-02-27T06:14:10.443Z,1025.42
2019-02-27T06:15:10.413Z,1025.41
2019-02-27T06:16:10.394Z,1025.38
2019-02-27T06:17:12.781Z,1025.36
2019-02-27T06:18:10.353Z,1025.33
2019-02-27T06:19:10.327Z,1025.31
2019-02-27T06:20:10.310Z,1025.32
2019-02-27T06:21:10.285Z,1025.32
2019-02-27T06:22:10.267Z,1025.3
2019-02-27T06:23:10.242Z,1025.32
2019-02-27T06:24:12.411Z,1025.28
2019-02-27T06:25:10.199Z,1025.35
2019-02-27T06:26:10.194Z,1025.31
2019-02-27T06:27:10.169Z,1025.31
2019-02-27T06:28:10.134Z,1025.31
2019-02-27T06:29:10.115Z,1025.27
2019-02-27T06:30:10.096Z,1025.27
2019-02-27T06:31:10.074Z,1025.32
2019-02-27T06:32:12.297Z,1025.28
2019-02-27T06:33:11.780Z,1025.28
2019-02-27T06:34:10.011Z,1025.31
2019-02-27T06:35:10.143Z,1025.3
2019-02-27T06:36:09.962Z,1025.3
2019-02-27T06:37:09.993Z,1025.36
2019-02-27T06:38:10.040Z,1025.34
2019-02-27T06:39:10.006Z,1025.34
2019-02-27T06:40:09.918Z,1025.37
2019-02-27T06:41:10.024Z,1025.35
2019-02-27T06:42:09.884Z,1025.38
2019-02-27T06:43:09.813Z,1025.38
2019-02-27T06:44:09.801Z,1025.39
2019-02-27T06:45:10.194Z,1025.39
2019-02-27T06:46:09.833Z,1025.37
2019-02-27T06:47:09.873Z,1025.4
2019-02-27T06:48:10.391Z,1025.38
2019-02-27T06:49:09.815Z,1025.32
2019-02-27T06:50:09.750Z,1025.33
2019-02-27T06:51:09.762Z,1025.34
2019-02-27T06:52:09.877Z,1025.3
2019-02-27T06:53:09.601Z,1025.28
2019-02-27T06:54:09.585Z,1025.34
2019-02-27T06:55:09.696Z,1025.3
2019-02-27T06:56:09.627Z,1025.37
2019-02-27T06:57:09.664Z,1025.37
2019-02-27T06:58:09.612Z,1025.43
2019-02-27T06:59:09.603Z,1025.34
2019-02-27T07:00:09.734Z,1025.35
2019-02-27T07:01:11.278Z,1025.41
2019-02-27T07:02:09.522Z,1025.38
2019-02-27T07:03:09.390Z,1025.33
2019-02-27T07:04:09.364Z,1025.34
2019-02-27T07:05:13.212Z,1025.36
2019-02-27T07:06:09.321Z,1025.41
2019-02-27T07:07:09.302Z,1025.38
2019-02-27T07:08:09.298Z,1025.33
2019-02-27T07:09:11.575Z,1025.31
2019-02-27T07:10:09.301Z,1025.29
2019-02-27T07:11:10.509Z,1025.27
2019-02-27T07:12:09.246Z,1025.28
2019-02-27T07:13:09.213Z,1025.23
2019-02-27T07:14:09.224Z,1025.29
2019-02-27T07:15:10.240Z,1025.26
2019-02-27T07:16:09.114Z,1025.31
2019-02-27T07:17:09.089Z,1025.29
2019-02-27T07:18:09.081Z,1025.28
2019-02-27T07:19:09.041Z,1025.21
2019-02-27T07:20:09.024Z,1025.19
2019-02-27T07:21:09.003Z,1025.24
2019-02-27T07:22:11.654Z,1025.19
2019-02-27T07:23:08.956Z,1025.19
2019-02-27T07:24:08.939Z,1025.24
2019-02-27T07:25:08.919Z,1025.25
2019-02-27T07:26:08.895Z,1025.2
2019-02-27T07:27:08.869Z,1025.2
2019-02-27T07:28:09.248Z,1025.24
2019-02-27T07:29:08.831Z,1025.18
2019-02-27T07:30:08.811Z,1025.18
2019-02-27T07:31:08.788Z,1025.15
2019-02-27T07:32:08.763Z,1025.17
2019-02-27T07:33:08.739Z,1025.18
2019-02-27T07:34:08.724Z,1025.22
2019-02-27T07:35:08.712Z,1025.2
2019-02-27T07:36:08.676Z,1025.25
2019-02-27T07:37:10.384Z,1025.23
2019-02-27T07:38:08.633Z,1025.26
2019-02-27T07:39:08.616Z,1025.22
2019-02-27T07:40:09.294Z,1025.2
2019-02-27T07:41:08.573Z,1025.23
2019-02-27T07:42:08.548Z,1025.17
2019-02-27T07:43:08.559Z,1025.16
2019-02-27T07:44:08.508Z,1025.21
2019-02-27T07:45:10.622Z,1025.2
2019-02-27T07:46:08.460Z,1025.2
2019-02-27T07:47:08.443Z,1025.14
2019-02-27T07:48:08.422Z,1025.17
2019-02-27T07:49:08.401Z,1025.16
2019-02-27T07:50:08.802Z,1025.15
2019-02-27T07:51:08.353Z,1025.1
2019-02-27T07:52:08.336Z,1025.05
2019-02-27T07:53:08.315Z,1025.1
2019-02-27T07:54:08.294Z,1025.08
2019-02-27T07:55:18.733Z,1025.06
2019-02-27T07:56:08.251Z,1025.16
2019-02-27T07:57:08.225Z,1025.08
2019-02-27T07:58:08.209Z,1025.17
2019-02-27T07:59:08.188Z,1025.15
2019-02-27T08:00:08.160Z,1025.19
2019-02-27T08:01:08.140Z,1025.15
2019-02-27T08:02:08.124Z,1025.24
2019-02-27T08:03:09.426Z,1025.18
2019-02-27T08:04:08.075Z,1025.2
2019-02-27T08:05:08.057Z,1025.19
2019-02-27T08:06:08.036Z,1025.23
2019-02-27T08:07:09.969Z,1025.22
2019-02-27T08:08:07.990Z,1025.19
2019-02-27T08:09:07.974Z,1025.2
2019-02-27T08:10:07.944Z,1025.24
2019-02-27T08:11:08.043Z,1025.21
2019-02-27T08:12:07.919Z,1025.2
2019-02-27T08:13:07.885Z,1025.2
2019-02-27T08:14:07.860Z,1025.23
2019-02-27T08:15:07.843Z,1025.23
2019-02-27T08:16:07.822Z,1025.22
2019-02-27T08:17:17.190Z,1025.21
2019-02-27T08:18:07.842Z,1025.25
2019-02-27T08:19:08.819Z,1025.24
2019-02-27T08:20:07.739Z,1025.26
2019-02-27T08:21:07.714Z,1025.31
2019-02-27T08:22:07.689Z,1025.3
2019-02-27T08:23:07.803Z,1025.28
2019-02-27T08:24:07.740Z,1025.22
2019-02-27T08:25:07.726Z,1025.24
2019-02-27T08:26:07.720Z,1025.23
2019-02-27T08:27:09.602Z,1025.25
2019-02-27T08:28:07.563Z,1025.24
2019-02-27T08:29:07.538Z,1025.28
2019-02-27T08:30:07.521Z,1025.22
2019-02-27T08:31:07.494Z,1025.16
2019-02-27T08:32:07.473Z,1025.17
2019-02-27T08:33:08.377Z,1025.17
2019-02-27T08:34:07.435Z,1025.15
2019-02-27T08:35:07.423Z,1025.15
2019-02-27T08:36:07.399Z,1025.19
2019-02-27T08:37:07.366Z,1025.21
2019-02-27T08:38:07.356Z,1025.23
2019-02-27T08:39:07.333Z,1025.22
2019-02-27T08:40:07.301Z,1025.19
2019-02-27T08:41:07.279Z,1025.16
2019-02-27T08:42:07.257Z,1025.12
2019-02-27T08:43:10.232Z,1025.16
2019-02-27T08:44:07.215Z,1025.14
2019-02-27T08:45:07.197Z,1025.11
2019-02-27T08:46:07.171Z,1025.12
2019-02-27T08:47:07.761Z,1025.11
2019-02-27T08:48:07.134Z,1025.16
2019-02-27T08:49:07.111Z,1025.31
2019-02-27T08:50:07.090Z,1025.1
2019-02-27T08:51:08.667Z,1025.15
2019-02-27T08:52:08.466Z,1025.13
2019-02-27T08:53:07.076Z,1025.1
2019-02-27T08:54:07.022Z,1025.09
2019-02-27T08:55:06.990Z,1025.07
2019-02-27T08:56:06.962Z,1025.04
2019-02-27T08:57:06.939Z,1025.09
2019-02-27T08:58:07.264Z,1025.04
2019-02-27T08:59:06.892Z,1025.13
2019-02-27T09:00:06.876Z,1025.09
2019-02-27T09:01:06.848Z,1025.09
2019-02-27T09:02:06.831Z,1025.11
2019-02-27T09:03:06.805Z,1025.11
2019-02-27T09:04:11.160Z,1025.08
2019-02-27T09:05:06.762Z,1025.07
2019-02-27T09:06:06.746Z,1025.06
2019-02-27T09:07:06.744Z,1025.01
2019-02-27T09:08:07.245Z,1025
2019-02-27T09:09:07.933Z,1024.97
2019-02-27T09:10:06.659Z,1024.88
2019-02-27T09:11:06.895Z,1024.89
2019-02-27T09:12:06.613Z,1024.85
2019-02-27T09:13:06.591Z,1024.85
2019-02-27T09:14:06.569Z,1024.86
2019-02-27T09:15:06.552Z,1024.85
2019-02-27T09:16:06.525Z,1024.88
2019-02-27T09:17:06.509Z,1024.88
2019-02-27T09:18:06.492Z,1024.89
2019-02-27T09:19:09.218Z,1024.86
2019-02-27T09:20:06.445Z,1024.86
2019-02-27T09:21:06.447Z,1024.84
2019-02-27T09:22:06.397Z,1024.87
2019-02-27T09:23:06.386Z,1024.83
2019-02-27T09:24:06.429Z,1024.78
2019-02-27T09:25:06.337Z,1024.74
2019-02-27T09:26:06.327Z,1024.78
2019-02-27T09:27:06.289Z,1024.74
2019-02-27T09:28:08.740Z,1024.76
2019-02-27T09:29:06.248Z,1024.93
2019-02-27T09:30:06.226Z,1024.95
2019-02-27T09:31:06.213Z,1024.93
2019-02-27T09:32:06.183Z,1024.9
2019-02-27T09:33:06.194Z,1024.88
2019-02-27T09:34:06.308Z,1024.92
2019-02-27T09:35:06.124Z,1024.85
2019-02-27T09:36:07.934Z,1024.82
2019-02-27T09:37:06.077Z,1024.9
2019-02-27T09:38:06.053Z,1024.83
2019-02-27T09:39:06.041Z,1024.77
2019-02-27T09:40:06.064Z,1024.77
2019-02-27T09:41:05.991Z,1024.76
2019-02-27T09:42:05.974Z,1024.77
2019-02-27T09:43:06.319Z,1024.79
2019-02-27T09:44:05.956Z,1024.78
2019-02-27T09:45:08.216Z,1024.76
2019-02-27T09:46:06.302Z,1024.75
2019-02-27T09:47:05.855Z,1024.75
2019-02-27T09:48:05.838Z,1024.71
2019-02-27T09:49:07.005Z,1024.73
2019-02-27T09:50:05.790Z,1024.67
2019-02-27T09:51:05.765Z,1024.69
2019-02-27T09:52:05.743Z,1024.64
2019-02-27T09:53:05.718Z,1024.64
2019-02-27T09:54:05.718Z,1024.66
2019-02-27T09:55:05.678Z,1024.67
2019-02-27T09:56:05.652Z,1024.65
2019-02-27T09:57:05.732Z,1024.62
2019-02-27T09:58:09.847Z,1024.57
2019-02-27T09:59:05.629Z,1024.59
2019-02-27T10:00:05.634Z,1024.58
2019-02-27T10:01:05.538Z,1024.56
2019-02-27T10:02:06.201Z,1024.57
2019-02-27T10:03:05.497Z,1024.58
2019-02-27T10:04:05.478Z,1024.6
2019-02-27T10:05:05.453Z,1024.62
2019-02-27T10:06:05.424Z,1024.61
2019-02-27T10:07:05.406Z,1024.64
2019-02-27T10:08:07.368Z,1024.65
2019-02-27T10:09:05.472Z,1024.65
2019-02-27T10:10:05.334Z,1024.6
2019-02-27T10:11:05.310Z,1024.62
2019-02-27T10:12:05.404Z,1024.64
2019-02-27T10:13:05.271Z,1024.63
2019-02-27T10:14:05.242Z,1024.61
2019-02-27T10:15:05.296Z,1024.62
2019-02-27T10:16:05.302Z,1024.6
2019-02-27T10:17:06.707Z,1024.6
2019-02-27T10:18:05.179Z,1024.59
2019-02-27T10:19:05.136Z,1024.59
2019-02-27T10:20:05.111Z,1024.6
2019-02-27T10:21:05.084Z,1024.64
2019-02-27T10:22:05.066Z,1024.59
2019-02-27T10:23:05.039Z,1024.55
2019-02-27T10:24:05.456Z,1024.55
2019-02-27T10:25:05.009Z,1024.54
2019-02-27T10:26:04.976Z,1024.57
2019-02-27T10:27:04.998Z,1024.58
2019-02-27T10:28:04.952Z,1024.53
2019-02-27T10:29:04.904Z,1024.55
2019-02-27T10:30:11.249Z,1024.56
2019-02-27T10:31:04.864Z,1024.52
2019-02-27T10:32:04.865Z,1024.45
2019-02-27T10:33:04.845Z,1024.5
2019-02-27T10:34:04.792Z,1024.49
2019-02-27T10:35:04.774Z,1024.46
2019-02-27T10:36:04.747Z,1024.49
2019-02-27T10:37:04.784Z,1024.45
2019-02-27T10:38:04.705Z,1024.47
2019-02-27T10:39:04.684Z,1024.47
2019-02-27T10:40:04.662Z,1024.43
2019-02-27T10:41:04.797Z,1024.42
2019-02-27T10:42:04.613Z,1024.45
2019-02-27T10:43:04.838Z,1024.41
2019-02-27T10:44:04.573Z,1024.44
2019-02-27T10:45:04.564Z,1024.38
2019-02-27T10:46:04.525Z,1024.37
2019-02-27T10:47:04.502Z,1024.33
2019-02-27T10:48:04.487Z,1024.3
2019-02-27T10:49:04.463Z,1024.28
2019-02-27T10:50:04.442Z,1024.25
2019-02-27T10:51:04.420Z,1024.22
2019-02-27T10:52:04.554Z,1024.21
2019-02-27T10:53:04.554Z,1024.21
2019-02-27T10:54:05.447Z,1024.21
2019-02-27T10:55:04.329Z,1024.19
2019-02-27T10:56:04.323Z,1024.17
2019-02-27T10:57:05.905Z,1024.19
2019-02-27T10:58:04.266Z,1024.17
2019-02-27T10:59:04.242Z,1024.18
2019-02-27T11:00:04.216Z,1024.1
2019-02-27T11:01:04.193Z,1024.13
2019-02-27T11:02:04.175Z,1024.08
2019-02-27T11:03:04.155Z,1024.09
2019-02-27T11:04:04.131Z,1024.06
2019-02-27T11:05:04.107Z,1024.06
2019-02-27T11:06:04.085Z,1024.02
2019-02-27T11:07:04.068Z,1023.97
2019-02-27T11:08:04.046Z,1023.95
2019-02-27T11:09:04.623Z,1023.97
2019-02-27T11:10:03.996Z,1023.96
2019-02-27T11:11:03.986Z,1023.89
2019-02-27T11:12:03.960Z,1023.89
2019-02-27T11:13:06.602Z,1023.9
2019-02-27T11:14:03.908Z,1023.85
2019-02-27T11:15:03.888Z,1023.86
2019-02-27T11:16:03.869Z,1023.81
2019-02-27T11:17:03.848Z,1023.8
2019-02-27T11:18:05.341Z,1023.73
2019-02-27T11:19:03.800Z,1023.71
2019-02-27T11:20:03.782Z,1023.7
2019-02-27T11:21:03.758Z,1023.67
2019-02-27T11:22:03.736Z,1023.66
2019-02-27T11:23:06.391Z,1023.66
2019-02-27T11:24:03.692Z,1023.64
2019-02-27T11:25:03.667Z,1023.64
2019-02-27T11:26:03.651Z,1023.63
2019-02-27T11:27:06.026Z,1023.58
2019-02-27T11:28:03.601Z,1023.58
2019-02-27T11:29:03.585Z,1023.58
2019-02-27T11:30:03.570Z,1023.54
2019-02-27T11:31:03.558Z,1023.49
2019-02-27T11:32:03.514Z,1023.48
2019-02-27T11:33:03.495Z,1023.47
2019-02-27T11:34:05.013Z,1023.42
2019-02-27T11:35:03.454Z,1023.43
2019-02-27T11:36:05.622Z,1023.4
2019-02-27T11:37:04.342Z,1023.34
2019-02-27T11:38:03.383Z,1023.37
2019-02-27T11:39:04.747Z,1023.35
2019-02-27T11:40:05.303Z,1023.35
2019-02-27T11:41:03.321Z,1023.38
2019-02-27T11:42:03.300Z,1023.34
2019-02-27T11:43:06.267Z,1023.35
2019-02-27T11:44:03.258Z,1023.26
2019-02-27T11:45:03.232Z,1023.33
2019-02-27T11:46:03.207Z,1023.26
2019-02-27T11:47:03.185Z,1023.27
2019-02-27T11:48:03.189Z,1023.29
2019-02-27T11:49:03.269Z,1023.27
2019-02-27T11:50:03.127Z,1023.21
2019-02-27T11:51:03.099Z,1023.2
2019-02-27T11:52:03.078Z,1023.16
2019-02-27T11:53:03.149Z,1023.11
2019-02-27T11:54:04.251Z,1023.12
2019-02-27T11:55:03.009Z,1023.12
2019-02-27T11:56:02.993Z,1023.1
2019-02-27T11:57:02.964Z,1023.1
2019-02-27T11:58:05.297Z,1023.09
2019-02-27T11:59:03.042Z,1023.09
2019-02-27T12:00:02.898Z,1023.09
2019-02-27T12:01:02.878Z,1023.07
2019-02-27T12:02:02.863Z,1023.03
2019-02-27T12:03:02.836Z,1023.06
2019-02-27T12:04:02.880Z,1023.05
2019-02-27T12:05:02.817Z,1023.03
2019-02-27T12:06:05.261Z,1023.01
2019-02-27T12:07:02.749Z,1023.01
2019-02-27T12:08:02.794Z,1022.96